createdAt,value
2023-05-09T00:00:21.370Z,18.80
2023-05-09T00:03:23.201Z,20.00
2023-05-09T00:06:29.618Z,19.08
2023-05-09T00:09:31.485Z,19.77
2023-05-09T00:12:33.087Z,17.85
2023-05-09T00:15:34.668Z,19.63
2023-05-09T00:18:37.693Z,20.60
2023-05-09T00:21:39.328Z,18.10
2023-05-09T00:24:41.325Z,18.48
2023-05-09T00:27:45.148Z,17.33
2023-05-09T00:30:46.867Z,20.40
2023-05-09T00:33:48.556Z,20.90
2023-05-09T00:36:50.580Z,20.77
2023-05-09T00:39:52.133Z,25.98
2023-05-09T00:42:55.762Z,18.65
2023-05-09T00:45:57.560Z,20.20
2023-05-09T00:48:59.294Z,21.85
2023-05-09T00:52:04.171Z,26.15
2023-05-09T00:55:08.877Z,22.90
2023-05-09T00:58:10.932Z,21.20
2023-05-09T01:01:12.845Z,22.73
2023-05-09T01:04:14.784Z,23.73
2023-05-09T01:07:20.998Z,25.55
2023-05-09T01:10:56.959Z,21.17
2023-05-09T01:14:06.537Z,23.52
2023-05-09T01:17:25.808Z,25.45
2023-05-09T01:20:45.591Z,23.27
2023-05-09T01:23:57.399Z,22.67
2023-05-09T01:27:32.752Z,21.23
2023-05-09T01:30:37.562Z,27.45
2023-05-09T01:33:44.499Z,30.80
2023-05-09T01:36:49.307Z,25.90
2023-05-09T01:40:01.640Z,24.23
2023-05-09T01:43:07.928Z,27.10
2023-05-09T01:46:11.423Z,28.98
2023-05-09T01:49:14.328Z,26.63
2023-05-09T01:52:18.392Z,27.48
2023-05-09T01:55:22.665Z,25.02
2023-05-09T01:58:26.233Z,31.42
2023-05-09T02:01:28.806Z,28.30
2023-05-09T02:04:30.987Z,29.50
2023-05-09T02:07:33.568Z,27.42
2023-05-09T02:10:35.696Z,28.33
2023-05-09T02:13:38.292Z,33.25
2023-05-09T02:16:40.551Z,35.47
2023-05-09T02:19:45.612Z,37.92
2023-05-09T02:22:47.835Z,40.88
2023-05-09T02:25:50.633Z,32.67
2023-05-09T02:28:53.536Z,42.33
2023-05-09T02:31:55.878Z,39.25
2023-05-09T02:34:58.817Z,43.70
2023-05-09T02:38:01.511Z,48.25
2023-05-09T02:41:03.512Z,45.72
2023-05-09T02:44:05.132Z,45.35
2023-05-09T02:47:07.527Z,47.10
2023-05-09T02:50:09.356Z,43.13
2023-05-09T02:53:11.089Z,37.20
2023-05-09T02:56:12.741Z,35.50
2023-05-09T02:59:14.337Z,39.55
2023-05-09T03:02:15.978Z,38.70
2023-05-09T03:05:18.204Z,38.55
2023-05-09T03:08:19.777Z,37.35
2023-05-09T03:11:21.881Z,38.72
2023-05-09T03:14:23.496Z,33.60
2023-05-09T03:17:25.073Z,39.10
2023-05-09T03:20:27.682Z,36.00
2023-05-09T03:23:29.241Z,36.83
2023-05-09T03:26:30.820Z,37.05
2023-05-09T03:29:33.329Z,40.15
2023-05-09T03:32:34.900Z,45.88
2023-05-09T03:35:36.441Z,43.08
2023-05-09T03:38:37.989Z,50.80
2023-05-09T03:41:39.723Z,43.25
2023-05-09T03:44:41.283Z,48.78
2023-05-09T03:47:42.971Z,49.65
2023-05-09T03:50:44.546Z,52.67
2023-05-09T03:53:47.200Z,64.40
2023-05-09T03:56:48.857Z,63.75
2023-05-09T03:59:51.194Z,65.47
2023-05-09T04:02:53.494Z,67.60
2023-05-09T04:05:55.328Z,70.70
2023-05-09T04:08:56.932Z,73.90
2023-05-09T04:11:58.465Z,73.28
2023-05-09T04:15:00.144Z,68.75
2023-05-09T04:18:01.845Z,66.30
2023-05-09T04:21:03.659Z,73.80
2023-05-09T04:24:05.780Z,68.82
2023-05-09T04:27:07.845Z,72.78
2023-05-09T04:30:10.290Z,70.80
2023-05-09T04:33:11.933Z,73.50
2023-05-09T04:36:13.505Z,75.38
2023-05-09T04:39:15.226Z,77.30
2023-05-09T04:42:16.750Z,65.78
2023-05-09T04:45:18.919Z,72.03
2023-05-09T04:48:20.545Z,70.50
2023-05-09T04:51:22.224Z,63.30
2023-05-09T04:54:23.806Z,69.18
2023-05-09T04:57:25.754Z,60.85
2023-05-09T05:00:27.442Z,60.90
2023-05-09T05:03:28.968Z,66.53
2023-05-09T05:06:31.852Z,78.97
2023-05-09T05:09:33.421Z,76.97
2023-05-09T05:12:34.973Z,81.97
2023-05-09T05:15:36.500Z,90.65
2023-05-09T05:18:38.037Z,87.03
2023-05-09T05:21:39.582Z,92.53
2023-05-09T05:24:41.138Z,96.30
2023-05-09T05:27:42.776Z,97.25
2023-05-09T05:30:44.392Z,98.85
2023-05-09T05:33:46.202Z,94.72
2023-05-09T05:36:47.777Z,93.22
2023-05-09T05:39:51.426Z,107.30
2023-05-09T05:42:53.001Z,100.70
2023-05-09T05:45:54.865Z,119.57
2023-05-09T05:48:56.664Z,103.40
2023-05-09T05:51:58.251Z,112.53
2023-05-09T05:54:59.780Z,108.20
2023-05-09T05:58:01.314Z,89.63
2023-05-09T06:01:02.988Z,101.25
2023-05-09T06:04:04.680Z,76.95
2023-05-09T06:07:06.362Z,62.10
2023-05-09T06:10:08.843Z,55.58
2023-05-09T06:13:10.459Z,57.28
2023-05-09T06:16:19.333Z,52.05
2023-05-09T06:19:22.195Z,43.57
2023-05-09T06:22:23.708Z,47.25
2023-05-09T06:25:25.350Z,41.13
2023-05-09T06:28:27.029Z,39.75
2023-05-09T06:31:28.671Z,39.22
2023-05-09T06:34:30.364Z,32.33
2023-05-09T06:37:34.787Z,32.40
2023-05-09T06:40:36.554Z,36.00
2023-05-09T06:43:38.118Z,30.95
2023-05-09T06:46:39.747Z,32.15
2023-05-09T06:49:41.381Z,35.72
2023-05-09T06:52:42.964Z,32.33
2023-05-09T06:55:44.809Z,32.60
2023-05-09T06:58:46.405Z,35.35
2023-05-09T07:01:47.991Z,33.63
2023-05-09T07:04:49.971Z,33.50
2023-05-09T07:07:52.029Z,26.60
2023-05-09T07:10:53.619Z,29.52
2023-05-09T07:13:55.162Z,29.45
2023-05-09T07:17:09.940Z,26.92
2023-05-09T07:20:18.498Z,25.42
2023-05-09T07:23:20.439Z,26.08
2023-05-09T07:26:22.138Z,27.20
2023-05-09T07:29:23.669Z,24.00
2023-05-09T07:32:27.144Z,24.48
2023-05-09T07:35:28.802Z,28.10
2023-05-09T07:38:30.369Z,23.38
2023-05-09T07:41:32.077Z,22.27
2023-05-09T07:44:33.664Z,20.05
2023-05-09T07:47:35.243Z,20.42
2023-05-09T07:50:36.891Z,18.35
2023-05-09T07:53:38.449Z,18.65
2023-05-09T07:56:40.044Z,17.05
2023-05-09T07:59:42.243Z,16.35
2023-05-09T08:02:44.022Z,15.20
2023-05-09T08:05:45.628Z,15.63
2023-05-09T08:08:47.294Z,13.75
2023-05-09T08:11:48.933Z,19.75
2023-05-09T08:14:50.474Z,14.05
2023-05-09T08:17:52.137Z,15.18
2023-05-09T08:20:53.808Z,12.88
2023-05-09T08:23:55.675Z,18.17
2023-05-09T08:26:57.236Z,15.07
2023-05-09T08:29:59.004Z,11.63
2023-05-09T08:33:00.630Z,11.60
2023-05-09T08:36:02.932Z,11.77
2023-05-09T08:39:04.491Z,11.93
2023-05-09T08:42:07.235Z,11.57
2023-05-09T08:45:14.990Z,11.57
2023-05-09T08:48:17.315Z,9.63
2023-05-09T08:51:19.770Z,13.05
2023-05-09T08:54:23.077Z,12.88
2023-05-09T08:57:25.821Z,49.10
2023-05-09T09:00:28.439Z,15.25
2023-05-09T09:03:30.705Z,11.82
2023-05-09T09:06:34.597Z,15.18
2023-05-09T09:09:36.983Z,13.18
2023-05-09T09:12:39.762Z,13.32
2023-05-09T09:15:44.067Z,10.93
2023-05-09T09:18:46.564Z,10.82
2023-05-09T09:21:49.826Z,11.40
2023-05-09T09:24:51.556Z,18.17
2023-05-09T09:27:53.109Z,11.50
2023-05-09T09:30:54.725Z,11.55
2023-05-09T09:34:01.253Z,9.00
2023-05-09T09:37:03.005Z,12.70
2023-05-09T09:40:06.996Z,11.18
2023-05-09T09:43:09.704Z,10.30
2023-05-09T09:46:11.496Z,9.25
2023-05-09T09:49:14.432Z,11.63
2023-05-09T09:52:24.856Z,8.98
2023-05-09T09:58:28.227Z,6.53
2023-05-09T10:01:29.847Z,9.27
2023-05-09T10:04:33.796Z,8.07
2023-05-09T10:07:35.568Z,9.07
2023-05-09T10:10:38.038Z,10.80
2023-05-09T10:13:39.686Z,7.47
2023-05-09T10:16:44.229Z,11.40
2023-05-09T10:19:47.497Z,13.50
2023-05-09T10:22:50.694Z,8.10
2023-05-09T10:26:16.609Z,7.07
2023-05-09T10:29:22.888Z,8.48
2023-05-09T10:32:31.360Z,7.47
2023-05-09T10:35:46.301Z,9.32
2023-05-09T10:38:49.693Z,6.22
2023-05-09T10:41:51.557Z,12.57
2023-05-09T10:44:53.978Z,7.43
2023-05-09T10:47:56.851Z,9.52
2023-05-09T10:51:00.363Z,10.38
2023-05-09T10:54:12.846Z,6.28
2023-05-09T10:57:19.454Z,8.57
2023-05-09T11:00:24.763Z,7.18
2023-05-09T11:03:27.583Z,6.53
2023-05-09T11:06:45.387Z,5.40
2023-05-09T11:09:52.277Z,9.07
2023-05-09T11:12:58.677Z,6.53
2023-05-09T11:16:03.588Z,9.88
2023-05-09T11:19:05.849Z,7.78
2023-05-09T11:22:19.695Z,12.07
2023-05-09T11:25:28.026Z,5.70
2023-05-09T11:28:32.294Z,8.35
2023-05-09T11:31:33.902Z,3.83
2023-05-09T11:34:37.222Z,4.75
2023-05-09T11:38:04.726Z,7.13
2023-05-09T11:41:06.802Z,6.13
2023-05-09T11:44:17.049Z,9.38
2023-05-09T11:47:19.158Z,6.80
2023-05-09T11:50:21.687Z,4.13
2023-05-09T11:53:23.885Z,14.80
2023-05-09T11:56:25.534Z,5.85
2023-05-09T11:59:28.184Z,6.35
2023-05-09T12:02:30.434Z,6.68
2023-05-09T12:05:32.185Z,4.65
2023-05-09T12:08:34.295Z,6.20
2023-05-09T12:11:37.153Z,5.07
2023-05-09T12:14:39.729Z,9.82
2023-05-09T12:17:42.867Z,7.30
2023-05-09T12:20:47.069Z,5.60
2023-05-09T12:23:50.960Z,5.97
2023-05-09T12:26:55.591Z,6.72
2023-05-09T12:29:57.305Z,6.45
2023-05-09T12:32:59.041Z,5.97
2023-05-09T12:36:10.860Z,7.28
2023-05-09T12:39:13.090Z,5.32
2023-05-09T12:42:14.681Z,7.32
2023-05-09T12:45:17.196Z,5.60
2023-05-09T12:48:20.039Z,5.90
2023-05-09T12:51:22.181Z,5.82
2023-05-09T12:54:25.829Z,6.32
2023-05-09T12:57:29.514Z,3.80
2023-05-09T13:00:45.534Z,5.63
2023-05-09T13:04:04.065Z,8.00
2023-05-09T13:07:10.256Z,5.32
2023-05-09T13:10:14.337Z,6.93
2023-05-09T13:13:16.653Z,6.03
2023-05-09T13:16:18.509Z,5.68
2023-05-09T13:19:20.139Z,11.63
2023-05-09T13:22:21.783Z,5.15
2023-05-09T13:25:23.642Z,6.13
2023-05-09T13:28:25.478Z,4.50
2023-05-09T13:31:27.145Z,8.43
2023-05-09T13:34:28.841Z,6.78
2023-05-09T13:37:30.445Z,6.75
2023-05-09T13:40:32.038Z,4.32
2023-05-09T13:43:34.283Z,10.10
2023-05-09T13:46:36.970Z,10.43
2023-05-09T13:49:38.715Z,11.50
2023-05-09T13:52:40.494Z,11.32
2023-05-09T13:55:42.720Z,8.02
2023-05-09T13:58:44.294Z,12.20
2023-05-09T14:01:46.072Z,13.25
2023-05-09T14:04:47.761Z,11.20
2023-05-09T14:07:49.475Z,12.15
2023-05-09T14:10:51.072Z,12.63
2023-05-09T14:13:52.977Z,14.60
2023-05-09T14:16:54.568Z,12.43
2023-05-09T14:19:56.118Z,15.27
2023-05-09T14:23:00.489Z,15.60
2023-05-09T14:26:02.113Z,16.05
2023-05-09T14:29:05.469Z,18.10
2023-05-09T14:32:08.033Z,14.00
2023-05-09T14:35:09.851Z,16.45
2023-05-09T14:38:13.012Z,16.23
2023-05-09T14:41:15.164Z,17.33
2023-05-09T14:44:17.396Z,16.27
2023-05-09T14:47:18.991Z,16.73
2023-05-09T14:50:21.468Z,26.88
2023-05-09T14:53:23.808Z,18.80
2023-05-09T14:56:26.442Z,22.30
2023-05-09T14:59:28.399Z,21.90
2023-05-09T15:02:30.020Z,19.58
2023-05-09T15:05:31.545Z,25.13
2023-05-09T15:08:34.982Z,22.73
2023-05-09T15:11:46.868Z,20.23
2023-05-09T15:14:53.633Z,22.08
2023-05-09T15:17:55.266Z,23.58
2023-05-09T15:20:56.855Z,29.40
2023-05-09T15:23:58.621Z,26.92
2023-05-09T15:27:00.612Z,26.08
2023-05-09T15:30:02.676Z,19.77
2023-05-09T15:33:04.397Z,22.42
2023-05-09T15:36:06.733Z,23.35
2023-05-09T15:39:08.343Z,40.35
2023-05-09T15:42:12.210Z,27.00
2023-05-09T15:45:13.852Z,19.45
2023-05-09T15:48:16.664Z,19.60
2023-05-09T15:51:18.253Z,20.35
2023-05-09T15:54:20.257Z,15.45
2023-05-09T15:57:22.271Z,13.15
2023-05-09T16:00:24.567Z,16.23
2023-05-09T16:03:26.300Z,13.10
2023-05-09T16:06:28.568Z,18.73
2023-05-09T16:09:30.133Z,21.90
2023-05-09T16:12:32.768Z,8.85
2023-05-09T16:15:34.991Z,11.05
2023-05-09T16:18:36.562Z,16.65
2023-05-09T16:21:39.306Z,30.00
2023-05-09T16:24:41.229Z,10.82
2023-05-09T16:27:42.876Z,13.52
2023-05-09T16:30:44.502Z,13.27
2023-05-09T16:33:47.005Z,14.40
2023-05-09T16:36:48.607Z,14.40
2023-05-09T16:39:50.250Z,17.60
2023-05-09T16:42:53.181Z,16.88
2023-05-09T16:45:54.732Z,19.52
2023-05-09T16:48:56.406Z,22.90
2023-05-09T16:51:57.962Z,19.15
2023-05-09T16:54:59.585Z,23.98
2023-05-09T16:58:01.302Z,22.13
2023-05-09T17:01:03.445Z,19.80
2023-05-09T17:04:06.664Z,19.80
2023-05-09T17:07:08.656Z,16.90
2023-05-09T17:10:11.007Z,14.85
2023-05-09T17:13:12.630Z,19.02
2023-05-09T17:16:14.414Z,19.52
2023-05-09T17:19:16.667Z,15.93
2023-05-09T17:22:18.769Z,20.20
2023-05-09T17:25:20.418Z,16.55
2023-05-09T17:28:21.965Z,10.85
2023-05-09T17:31:23.609Z,11.73
2023-05-09T17:34:25.188Z,11.85
2023-05-09T17:37:26.757Z,7.10
2023-05-09T17:40:28.714Z,5.72
2023-05-09T17:43:30.774Z,8.32
2023-05-09T17:46:32.713Z,5.55
2023-05-09T17:49:34.308Z,2.42
2023-05-09T17:52:36.388Z,4.65
2023-05-09T17:55:37.929Z,4.43
2023-05-09T17:58:39.494Z,7.30
2023-05-09T18:01:41.329Z,4.47
2023-05-09T18:04:43.975Z,8.10
2023-05-09T18:07:45.552Z,7.53
2023-05-09T18:10:47.142Z,5.60
2023-05-09T18:13:48.819Z,7.90
2023-05-09T18:16:50.547Z,6.05
2023-05-09T18:19:52.131Z,8.45
2023-05-09T18:22:54.284Z,9.98
2023-05-09T18:25:55.995Z,8.30
2023-05-09T18:28:57.976Z,6.22
2023-05-09T18:31:59.534Z,8.75
2023-05-09T18:35:01.098Z,5.10
2023-05-09T18:38:02.690Z,5.78
2023-05-09T18:41:08.783Z,9.45
2023-05-09T18:44:10.588Z,10.43
2023-05-09T18:47:12.296Z,7.60
2023-05-09T18:50:14.148Z,5.13
2023-05-09T18:53:15.994Z,10.23
2023-05-09T18:56:20.980Z,5.07
2023-05-09T18:59:23.414Z,4.82
2023-05-09T19:02:25.261Z,4.10
2023-05-09T19:05:27.466Z,5.55
2023-05-09T19:08:29.131Z,8.43
2023-05-09T19:11:30.840Z,5.05
2023-05-09T19:14:32.462Z,7.28
2023-05-09T19:17:34.430Z,7.82
2023-05-09T19:20:36.755Z,5.72
2023-05-09T19:23:38.958Z,5.55
2023-05-09T19:26:40.570Z,12.73
2023-05-09T19:29:42.103Z,13.00
2023-05-09T19:32:44.407Z,12.77
2023-05-09T19:35:45.972Z,6.85
2023-05-09T19:38:47.578Z,10.23
2023-05-09T19:41:49.148Z,11.30
2023-05-09T19:44:52.301Z,9.05
2023-05-09T19:47:54.796Z,14.27
2023-05-09T19:50:58.440Z,9.98
2023-05-09T19:54:00.015Z,12.63
2023-05-09T19:57:01.917Z,8.88
2023-05-09T20:00:05.222Z,22.15
2023-05-09T20:03:07.876Z,7.35
2023-05-09T20:06:09.496Z,12.02
2023-05-09T20:09:11.250Z,11.32
2023-05-09T20:12:13.503Z,10.20
2023-05-09T20:15:15.442Z,11.23
2023-05-09T20:18:16.981Z,9.68
2023-05-09T20:21:18.523Z,13.65
2023-05-09T20:24:20.346Z,10.15
2023-05-09T20:27:21.958Z,7.32
2023-05-09T20:30:23.550Z,16.60
2023-05-09T20:33:25.242Z,8.38
2023-05-09T20:36:28.333Z,6.70
2023-05-09T20:39:29.895Z,4.18
2023-05-09T20:42:31.583Z,4.25
2023-05-09T20:45:33.186Z,4.57
2023-05-09T20:48:34.767Z,5.75
2023-05-09T20:51:36.448Z,6.80
2023-05-09T20:54:38.004Z,6.57
2023-05-09T20:57:39.605Z,5.32
2023-05-09T21:00:41.341Z,5.80
2023-05-09T21:03:42.975Z,5.95
2023-05-09T21:06:44.536Z,3.90
2023-05-09T21:09:50.704Z,6.25
2023-05-09T21:12:52.269Z,8.43
2023-05-09T21:15:53.843Z,6.90
2023-05-09T21:18:55.419Z,7.97
2023-05-09T21:21:57.919Z,9.80
2023-05-09T21:24:59.464Z,9.07
2023-05-09T21:28:01.011Z,8.88
2023-05-09T21:31:03.087Z,13.60
2023-05-09T21:34:09.735Z,13.68
2023-05-09T21:37:11.541Z,9.32
2023-05-09T21:40:13.742Z,14.13
2023-05-09T21:43:15.503Z,9.82
2023-05-09T21:46:17.571Z,11.55
2023-05-09T21:49:20.983Z,10.50
2023-05-09T21:52:23.506Z,14.00
2023-05-09T21:55:25.309Z,14.25
2023-05-09T21:58:26.864Z,13.05
2023-05-09T22:01:28.608Z,8.35
2023-05-09T22:04:30.260Z,9.18
2023-05-09T22:07:31.975Z,8.93
2023-05-09T22:10:34.035Z,8.52
2023-05-09T22:13:38.327Z,12.88
2023-05-09T22:16:40.009Z,11.32
2023-05-09T22:19:41.702Z,7.22
2023-05-09T22:22:43.234Z,12.43
2023-05-09T22:25:44.793Z,10.73
2023-05-09T22:28:46.408Z,12.82
2023-05-09T22:31:48.522Z,9.18
2023-05-09T22:34:50.136Z,19.88
2023-05-09T22:37:51.838Z,9.40
2023-05-09T22:40:53.412Z,14.68
2023-05-09T22:43:54.991Z,12.15
2023-05-09T22:46:56.550Z,9.15
2023-05-09T22:49:58.288Z,11.15
2023-05-09T22:53:00.035Z,7.88
2023-05-09T22:56:01.606Z,11.32
2023-05-09T22:59:03.274Z,9.10
2023-05-09T23:02:04.943Z,11.23
2023-05-09T23:05:08.861Z,10.75
2023-05-09T23:08:10.631Z,13.68
2023-05-09T23:11:12.280Z,12.02
2023-05-09T23:14:14.094Z,13.95
2023-05-09T23:17:16.100Z,13.15
2023-05-09T23:20:18.305Z,13.07
2023-05-09T23:23:20.241Z,11.02
2023-05-09T23:26:21.823Z,13.77
2023-05-09T23:29:23.472Z,12.82
2023-05-09T23:32:25.100Z,13.52
2023-05-09T23:35:26.866Z,14.93
2023-05-09T23:38:28.527Z,11.05
2023-05-09T23:41:30.152Z,10.98
2023-05-09T23:44:31.883Z,11.63
2023-05-09T23:47:33.578Z,10.52
2023-05-09T23:50:35.269Z,10.13
2023-05-09T23:53:36.885Z,11.02
2023-05-09T23:56:38.595Z,15.50
2023-05-09T23:59:42.035Z,19.15
